createdAt,value
2017-03-14T00:02:03.508Z,56.4
2017-03-14T00:07:03.406Z,56.4
2017-03-14T00:12:03.960Z,56.5
2017-03-14T00:17:03.675Z,56.4
2017-03-14T00:22:03.327Z,56.6
2017-03-14T00:27:04.013Z,56.6
2017-03-14T00:32:03.858Z,56.6
2017-03-14T00:37:03.289Z,56.7
2017-03-14T00:42:03.825Z,56.7
2017-03-14T00:47:03.418Z,56.8
2017-03-14T00:52:03.549Z,56.7
2017-03-14T00:57:03.388Z,56.7
2017-03-14T01:02:03.464Z,57.0
2017-03-14T01:07:03.801Z,56.9
2017-03-14T01:12:03.049Z,56.9
2017-03-14T01:17:03.622Z,57.0
2017-03-14T01:22:03.026Z,56.9
2017-03-14T01:27:03.482Z,57.0
2017-03-14T01:32:02.984Z,57.0
2017-03-14T01:37:03.447Z,56.9
2017-03-14T01:42:03.059Z,56.9
2017-03-14T01:47:03.574Z,57.0
2017-03-14T01:52:03.411Z,56.8
2017-03-14T01:57:03.280Z,56.8
2017-03-14T02:02:03.465Z,56.9
2017-03-14T02:07:03.394Z,56.8
2017-03-14T02:12:03.245Z,56.7
2017-03-14T02:17:03.772Z,56.6
2017-03-14T02:22:03.578Z,56.6
2017-03-14T02:27:03.498Z,56.7
2017-03-14T02:32:03.757Z,56.6
2017-03-14T02:37:03.592Z,56.5
2017-03-14T02:42:03.046Z,56.5
2017-03-14T02:47:03.839Z,56.4
2017-03-14T02:52:03.843Z,56.6
2017-03-14T02:57:03.304Z,56.6
2017-03-14T03:02:03.759Z,56.5
2017-03-14T03:07:03.199Z,56.4
2017-03-14T03:12:03.840Z,56.3
2017-03-14T03:17:03.465Z,56.5
2017-03-14T03:22:03.698Z,56.4
2017-03-14T03:27:03.983Z,56.4
2017-03-14T03:32:03.621Z,56.4
2017-03-14T03:37:03.547Z,56.3
2017-03-14T03:42:03.535Z,56.2
2017-03-14T03:47:03.834Z,56.2
2017-03-14T03:52:03.361Z,56.0
2017-03-14T03:57:03.829Z,56.1
2017-03-14T04:02:03.759Z,56.1
2017-03-14T04:07:03.959Z,56.1
2017-03-14T04:12:03.245Z,56.2
2017-03-14T04:17:03.646Z,56.0
2017-03-14T04:22:03.885Z,56.0
2017-03-14T04:27:03.921Z,56.0
2017-03-14T04:32:03.329Z,56.0
2017-03-14T04:37:03.877Z,56.2
2017-03-14T04:42:03.761Z,56.1
2017-03-14T04:47:03.068Z,56.1
2017-03-14T04:52:03.415Z,56.0
2017-03-14T04:57:03.496Z,56.2
2017-03-14T05:02:04.183Z,56.4
2017-03-14T05:07:03.584Z,56.3
2017-03-14T05:12:04.139Z,56.2
2017-03-14T05:17:17.567Z,56.1
2017-03-14T05:22:03.544Z,56.2
2017-03-14T05:27:04.027Z,56.1
2017-03-14T05:32:26.728Z,55.8
2017-03-14T05:37:03.165Z,55.7
2017-03-14T05:42:03.367Z,56.1
2017-03-14T05:47:26.851Z,55.9
2017-03-14T05:52:02.996Z,55.8
2017-03-14T05:57:03.311Z,55.8
2017-03-14T06:02:27.533Z,55.6
2017-03-14T06:07:03.343Z,55.7
2017-03-14T06:12:04.105Z,55.5
2017-03-14T06:17:23.955Z,55.4
2017-03-14T06:22:03.324Z,55.4
2017-03-14T06:27:02.997Z,55.5
2017-03-14T06:32:23.840Z,55.2
2017-03-14T06:37:03.360Z,54.7
2017-03-14T06:42:03.626Z,54.6
2017-03-14T06:47:28.854Z,54.7
2017-03-14T06:52:03.509Z,54.7
2017-03-14T06:57:03.033Z,54.2
2017-03-14T07:02:28.063Z,53.8
2017-03-14T07:07:04.121Z,54.0
2017-03-14T07:12:03.464Z,53.9
2017-03-14T07:17:26.709Z,53.7
2017-03-14T07:22:03.231Z,53.6
2017-03-14T07:27:03.167Z,53.4
2017-03-14T07:32:23.263Z,53.0
2017-03-14T07:37:03.261Z,53.0
2017-03-14T07:42:03.511Z,53.1
2017-03-14T07:47:26.930Z,53.2
2017-03-14T07:52:03.075Z,53.1
2017-03-14T07:57:03.902Z,53.3
2017-03-14T08:02:23.886Z,53.7
2017-03-14T08:07:03.280Z,53.6
2017-03-14T08:12:03.419Z,53.7
2017-03-14T08:17:28.565Z,53.9
2017-03-14T08:22:03.316Z,54.9
2017-03-14T08:27:03.609Z,54.5
2017-03-14T08:32:24.022Z,54.5
2017-03-14T08:37:03.577Z,54.6
2017-03-14T08:42:03.647Z,54.9
2017-03-14T08:47:24.363Z,54.5
2017-03-14T08:52:03.185Z,54.8
2017-03-14T08:57:03.402Z,54.9
2017-03-14T09:02:23.707Z,54.9
2017-03-14T09:07:03.973Z,54.8
2017-03-14T09:12:03.838Z,54.6
2017-03-14T09:17:24.293Z,54.6
2017-03-14T09:22:03.130Z,54.6
2017-03-14T09:27:03.813Z,54.9
2017-03-14T09:32:26.817Z,55.5
2017-03-14T09:37:03.787Z,55.4
2017-03-14T09:42:03.384Z,55.7
2017-03-14T09:47:31.401Z,56.5
2017-03-14T09:52:03.463Z,56.5
2017-03-14T09:57:03.347Z,56.8
2017-03-14T10:02:23.553Z,57.1
2017-03-14T10:07:03.107Z,57.1
2017-03-14T10:12:03.127Z,57.3
2017-03-14T10:17:24.466Z,57.4
2017-03-14T10:22:03.497Z,57.3
2017-03-14T10:27:04.050Z,57.3
2017-03-14T10:32:27.161Z,57.5
2017-03-14T10:37:04.171Z,57.5
2017-03-14T10:42:03.142Z,57.8
2017-03-14T10:47:18.200Z,58.1
2017-03-14T10:52:03.148Z,58.0
2017-03-14T10:57:03.488Z,58.4
2017-03-14T11:02:27.349Z,58.2
2017-03-14T11:07:03.170Z,58.0
2017-03-14T11:12:03.875Z,57.9
2017-03-14T11:17:23.356Z,58.2
2017-03-14T11:22:04.144Z,58.7
2017-03-14T11:27:03.741Z,58.6
2017-03-14T11:32:23.765Z,58.7
2017-03-14T11:37:03.951Z,59.3
2017-03-14T11:42:03.694Z,59.3
2017-03-14T11:47:24.150Z,58.7
2017-03-14T11:52:02.926Z,58.7
2017-03-14T11:57:03.372Z,58.7
2017-03-14T12:02:04.163Z,58.8
2017-03-14T12:07:03.188Z,58.9
2017-03-14T12:12:03.349Z,58.7
2017-03-14T12:17:22.738Z,58.8
2017-03-14T12:22:03.332Z,58.8
2017-03-14T12:27:04.138Z,58.6
2017-03-14T12:32:27.138Z,59.2
2017-03-14T12:37:03.227Z,59.2
2017-03-14T12:42:03.531Z,59.4
2017-03-14T12:47:23.545Z,59.5
2017-03-14T12:52:03.138Z,59.4
2017-03-14T12:57:03.487Z,59.4
2017-03-14T13:02:24.262Z,59.6
2017-03-14T13:07:03.283Z,59.6
2017-03-14T13:12:03.376Z,60.2
2017-03-14T13:17:21.091Z,59.6
2017-03-14T13:22:03.751Z,59.6
2017-03-14T13:27:03.690Z,59.8
2017-03-14T13:32:21.998Z,59.8
2017-03-14T13:37:03.784Z,59.7
2017-03-14T13:42:03.571Z,60.2
2017-03-14T13:47:28.088Z,60.3
2017-03-14T13:52:03.369Z,59.9
2017-03-14T13:57:03.146Z,60.3
2017-03-14T14:02:24.099Z,60.8
2017-03-14T14:07:03.227Z,59.7
2017-03-14T14:12:03.978Z,59.4
2017-03-14T14:17:23.874Z,59.5
2017-03-14T14:22:04.008Z,59.5
2017-03-14T14:27:03.380Z,58.6
2017-03-14T14:32:27.517Z,55.5
2017-03-14T14:37:03.435Z,55.5
2017-03-14T14:42:03.079Z,53.9
2017-03-14T14:47:24.260Z,51.0
2017-03-14T14:52:02.905Z,51.0
2017-03-14T14:57:03.805Z,48.6
2017-03-14T15:02:23.884Z,47.4
2017-03-14T15:07:03.357Z,47.4
2017-03-14T15:12:03.935Z,48.5
2017-03-14T15:17:26.468Z,47.2
2017-03-14T15:22:03.698Z,46.7
2017-03-14T15:27:04.024Z,46.7
2017-03-14T15:32:27.124Z,47.7
2017-03-14T15:37:03.650Z,47.2
2017-03-14T15:42:03.730Z,47.5
2017-03-14T15:47:21.267Z,47.8
2017-03-14T15:52:03.338Z,48.0
2017-03-14T15:57:03.367Z,48.0
2017-03-14T16:02:20.480Z,48.4
2017-03-14T16:07:03.114Z,49.2
2017-03-14T16:12:03.477Z,49.1
2017-03-14T16:17:24.686Z,49.4
2017-03-14T16:22:03.385Z,49.3
2017-03-14T16:27:03.781Z,51.2
2017-03-14T16:32:21.987Z,52.3
2017-03-14T16:37:03.475Z,52.3
2017-03-14T16:42:03.524Z,53.2
2017-03-14T16:47:26.315Z,57.0
2017-03-14T16:52:03.658Z,56.9
2017-03-14T16:57:03.837Z,55.9
2017-03-14T17:02:27.373Z,56.6
2017-03-14T17:07:03.131Z,57.6
2017-03-14T17:12:03.461Z,58.2
2017-03-14T17:17:26.146Z,57.8
2017-03-14T17:22:03.433Z,58.6
2017-03-14T17:27:03.779Z,58.9
2017-03-14T17:32:23.929Z,59.8
2017-03-14T17:37:03.441Z,60.5
2017-03-14T17:42:03.720Z,60.4
2017-03-14T17:47:29.699Z,60.5
2017-03-14T17:52:03.231Z,60.3
2017-03-14T17:57:03.480Z,60.1
2017-03-14T18:02:12.566Z,60.1
2017-03-14T18:07:03.522Z,60.0
2017-03-14T18:12:03.092Z,60.1
2017-03-14T18:17:03.925Z,60.0
2017-03-14T18:22:04.185Z,60.0
2017-03-14T18:27:03.246Z,60.0
2017-03-14T18:32:03.841Z,59.8
2017-03-14T18:37:03.093Z,59.7
2017-03-14T18:42:03.233Z,59.7
2017-03-14T18:47:03.383Z,59.7
2017-03-14T18:52:03.359Z,59.6
2017-03-14T18:57:03.963Z,59.6
2017-03-14T19:02:03.595Z,59.6
2017-03-14T19:07:03.550Z,59.6
2017-03-14T19:12:03.078Z,59.3
2017-03-14T19:17:03.517Z,59.2
2017-03-14T19:22:03.825Z,59.4
2017-03-14T19:27:03.065Z,59.4
2017-03-14T19:32:03.344Z,59.3
2017-03-14T19:37:03.717Z,59.2
2017-03-14T19:42:03.315Z,59.2
2017-03-14T19:47:05.798Z,59.1
2017-03-14T19:52:03.591Z,59.1
2017-03-14T19:57:03.497Z,59.1
2017-03-14T20:02:03.372Z,58.9
2017-03-14T20:07:03.771Z,58.8
2017-03-14T20:12:03.387Z,58.9
2017-03-14T20:17:03.411Z,58.8
2017-03-14T20:22:03.550Z,58.9
2017-03-14T20:27:03.204Z,58.8
2017-03-14T20:32:03.316Z,58.6
2017-03-14T20:37:03.875Z,58.5
2017-03-14T20:42:03.249Z,58.4
2017-03-14T20:47:03.247Z,58.4
2017-03-14T20:52:03.179Z,58.2
2017-03-14T20:57:03.805Z,58.3
2017-03-14T21:02:03.953Z,57.9
2017-03-14T21:07:04.025Z,58.0
2017-03-14T21:12:03.231Z,57.9
2017-03-14T21:17:03.382Z,57.8
2017-03-14T21:22:03.489Z,58.0
2017-03-14T21:27:03.502Z,57.9
2017-03-14T21:32:03.662Z,58.0
2017-03-14T21:37:03.183Z,58.0
2017-03-14T21:42:03.119Z,57.9
2017-03-14T21:47:03.197Z,57.6
2017-03-14T21:52:03.748Z,57.5
2017-03-14T21:57:03.401Z,57.4
2017-03-14T22:02:03.253Z,57.3
2017-03-14T22:07:03.332Z,57.4
2017-03-14T22:12:03.506Z,57.2
2017-03-14T22:17:03.618Z,57.4
2017-03-14T22:22:03.185Z,57.2
2017-03-14T22:27:03.375Z,57.1
2017-03-14T22:32:03.546Z,57.1
2017-03-14T22:37:03.547Z,57.0
2017-03-14T22:42:03.136Z,57.0
2017-03-14T22:47:03.183Z,57.0
2017-03-14T22:52:03.293Z,56.9
2017-03-14T22:57:03.550Z,56.8
2017-03-14T23:02:03.384Z,56.8
2017-03-14T23:07:03.702Z,56.9
2017-03-14T23:12:03.728Z,56.7
2017-03-14T23:22:03.963Z,56.6
2017-03-14T23:27:03.557Z,57.0
2017-03-14T23:32:03.417Z,56.7
2017-03-14T23:37:03.849Z,56.6
2017-03-14T23:42:03.339Z,56.6
2017-03-14T23:47:03.132Z,56.5
2017-03-14T23:52:03.022Z,56.4
2017-03-14T23:57:03.688Z,56.4
